Time;durP1;ratioP1;P1;durP2;ratioP2;P2;SDS_P1;SDS_P2;PMS_P1;PMS_P2;Temp;Humidity;BMP_temperature;BMP_pressure;BME280_temperature;BME280_humidity;BME280_pressure;Samples;Min_cycle;Max_cycle;Signal;HPM_P1;HPM_P2
2024/02/17 00:00:26;;;;;;;3.10;2.22;;;;;;;11.02;100.00;93617.06;2102256;28;20028;-80
2024/02/17 00:01:36;;;;;;;6.15;2.67;;;;;;;10.99;100.00;93610.59;2089864;28;20111;-80
2024/02/17 00:02:44;;;;;;;5.55;2.67;;;;;;;10.90;100.00;93610.38;2096765;28;20020;-80
2024/02/17 00:03:45;;;;;;;4.93;2.40;;;;;;;10.97;100.00;93614.84;2103380;28;20107;-81
2024/02/17 00:04:46;;;;;;;6.10;2.65;;;;;;;11.00;100.00;93612.13;2098225;28;20085;-81
2024/02/17 00:05:51;;;;;;;4.82;2.40;;;;;;;10.98;100.00;93613.69;2094372;28;20021;-80
2024/02/17 00:06:52;;;;;;;3.45;2.30;;;;;;;10.97;100.00;93612.91;2090911;28;20031;-81
2024/02/17 00:07:52;;;;;;;3.78;2.28;;;;;;;10.98;100.00;93611.03;2098060;28;20047;-81
2024/02/17 00:08:53;;;;;;;4.53;2.20;;;;;;;11.05;100.00;93614.31;2101669;28;20443;-80
2024/02/17 00:09:54;;;;;;;4.70;2.50;;;;;;;10.98;100.00;93627.81;2106530;28;20032;-81
2024/02/17 00:10:55;;;;;;;5.00;2.50;;;;;;;10.95;100.00;93617.16;2090491;28;20435;-80
2024/02/17 00:11:56;;;;;;;5.57;2.67;;;;;;;11.01;100.00;93616.28;2098997;28;20025;-80
2024/02/17 00:12:57;;;;;;;3.78;2.47;;;;;;;11.08;100.00;93623.47;2114734;28;20034;-81
2024/02/17 00:13:58;;;;;;;4.68;2.40;;;;;;;11.13;100.00;93627.59;2105670;28;20031;-80
2024/02/17 00:14:59;;;;;;;2.95;2.15;;;;;;;10.97;100.00;93622.84;2106339;28;20024;-80
2024/02/17 00:16:00;;;;;;;2.95;2.05;;;;;;;10.95;100.00;93628.63;2106574;28;20024;-80
2024/02/17 00:17:02;;;;;;;4.93;2.60;;;;;;;10.97;100.00;93631.63;2108358;28;20137;-80
2024/02/17 00:18:05;;;;;;;5.97;1.90;;;;;;;10.96;100.00;93635.47;2104510;28;20049;-80
2024/02/17 00:19:06;;;;;;;7.82;2.40;;;;;;;11.00;100.00;93638.88;2095330;28;20033;-80
2024/02/17 00:20:07;;;;;;;4.82;2.10;;;;;;;10.98;100.00;93635.84;2101850;28;20439;-80
2024/02/17 00:21:08;;;;;;;3.70;2.63;;;;;;;11.00;100.00;93633.50;2091394;28;20029;-79
2024/02/17 00:22:09;;;;;;;5.95;2.40;;;;;;;10.90;100.00;93634.44;2095663;28;20020;-80
2024/02/17 00:23:10;;;;;;;5.65;2.50;;;;;;;10.81;100.00;93629.59;2107304;28;20031;-80
2024/02/17 00:24:11;;;;;;;3.47;2.60;;;;;;;10.88;100.00;93627.97;2106616;28;20035;-80
2024/02/17 00:25:12;;;;;;;3.95;2.33;;;;;;;10.92;100.00;93632.09;2102409;28;20028;-79
2024/02/17 00:26:17;;;;;;;4.05;2.40;;;;;;;10.91;100.00;93632.50;2102368;28;20077;-80
2024/02/17 00:27:19;;;;;;;4.45;2.42;;;;;;;10.88;100.00;93636.00;2110916;28;20093;-79
2024/02/17 00:28:25;;;;;;;3.60;2.45;;;;;;;10.82;100.00;93636.44;2115819;28;20030;-80
2024/02/17 00:29:26;;;;;;;3.88;2.55;;;;;;;10.99;100.00;93637.34;2114919;28;20027;-80
2024/02/17 00:30:27;;;;;;;5.70;2.40;;;;;;;11.01;100.00;93642.28;2109838;28;20031;-80
2024/02/17 00:31:28;;;;;;;4.40;2.10;;;;;;;10.92;100.00;93642.03;2112513;28;20051;-79
2024/02/17 00:32:29;;;;;;;5.03;2.40;;;;;;;10.92;100.00;93637.44;2089232;28;20066;-80
2024/02/17 00:33:30;;;;;;;5.10;2.15;;;;;;;10.87;100.00;93640.59;2086598;28;20442;-80
2024/02/17 00:34:31;;;;;;;9.27;2.50;;;;;;;10.91;100.00;93638.63;2115171;28;20030;-79
2024/02/17 00:35:32;;;;;;;3.95;2.38;;;;;;;10.97;100.00;93645.00;2099687;28;20538;-80
2024/02/17 00:36:35;;;;;;;4.63;1.98;;;;;;;10.98;100.00;93640.44;2099176;28;20095;-80
2024/02/17 00:37:36;;;;;;;3.88;2.25;;;;;;;10.95;100.00;93642.00;2098616;28;20021;-80
2024/02/17 00:38:37;;;;;;;3.92;2.28;;;;;;;10.95;100.00;93641.25;2102858;28;20024;-80
2024/02/17 00:39:38;;;;;;;5.57;2.05;;;;;;;10.97;100.00;93642.34;2090235;28;20552;-80
2024/02/17 00:40:39;;;;;;;4.80;2.22;;;;;;;11.05;100.00;93649.09;2086118;28;20096;-80
2024/02/17 00:41:42;;;;;;;4.88;1.92;;;;;;;11.00;100.00;93638.88;2106849;28;20032;-79
2024/02/17 00:42:43;;;;;;;2.85;1.80;;;;;;;10.99;100.00;93634.69;2108675;28;21083;-80
2024/02/17 00:43:44;;;;;;;4.88;2.50;;;;;;;10.97;100.00;93642.34;2110998;28;20035;-80
2024/02/17 00:44:45;;;;;;;2.60;1.83;;;;;;;10.98;100.00;93643.13;2106729;28;20035;-80
2024/02/17 00:45:48;;;;;;;2.33;1.75;;;;;;;10.94;100.00;93640.50;2102664;28;20526;-80
2024/02/17 00:46:49;;;;;;;5.28;2.33;;;;;;;10.90;100.00;93642.47;2106593;28;20442;-80
2024/02/17 00:47:50;;;;;;;3.25;1.90;;;;;;;10.98;100.00;93640.44;2110012;28;20016;-80
2024/02/17 00:48:51;;;;;;;3.40;2.20;;;;;;;10.92;100.00;93644.72;2102842;28;20044;-80
2024/02/17 00:49:52;;;;;;;6.32;2.22;;;;;;;10.98;100.00;93643.13;2106676;28;20028;-79
2024/02/17 00:51:01;;;;;;;3.55;2.00;;;;;;;10.84;100.00;93642.16;2097930;28;20080;-79
2024/02/17 00:52:02;;;;;;;5.15;2.00;;;;;;;10.92;100.00;93650.06;2088010;28;20104;-79
2024/02/17 00:53:03;;;;;;;4.07;2.20;;;;;;;10.98;100.00;93643.88;2098452;28;20143;-80
2024/02/17 00:54:04;;;;;;;3.63;2.38;;;;;;;11.00;100.00;93648.81;2104969;28;20077;-80
2024/02/17 00:55:05;;;;;;;4.25;2.75;;;;;;;10.98;100.00;93651.91;2106802;28;20028;-80
2024/02/17 00:56:06;;;;;;;3.38;2.33;;;;;;;11.01;100.00;93653.00;2089530;28;20066;-80
2024/02/17 00:57:07;;;;;;;5.43;2.40;;;;;;;11.05;100.00;93653.69;2093631;28;20032;-80
2024/02/17 00:58:08;;;;;;;4.88;2.33;;;;;;;11.02;100.00;93654.53;2115059;28;20035;-81
2024/02/17 00:59:09;;;;;;;6.13;2.42;;;;;;;11.05;100.00;93662.47;2105968;28;20061;-80
2024/02/17 01:00:11;;;;;;;4.05;2.33;;;;;;;10.97;100.00;93653.03;2098323;28;20055;-80
2024/02/17 01:01:12;;;;;;;9.20;2.60;;;;;;;10.92;100.00;93656.16;2099623;28;20446;-79
2024/02/17 01:02:13;;;;;;;6.13;2.38;;;;;;;10.91;100.00;93661.94;2104264;28;20035;-80
2024/02/17 01:03:14;;;;;;;4.07;2.60;;;;;;;10.96;100.00;93662.22;2098243;28;20036;-80
2024/02/17 01:04:15;;;;;;;3.42;2.65;;;;;;;10.84;100.00;93662.78;2110949;28;20380;-80
2024/02/17 01:05:16;;;;;;;4.90;2.70;;;;;;;10.84;100.00;93662.78;2114914;28;20077;-80
2024/02/17 01:06:17;;;;;;;5.40;2.80;;;;;;;10.80;100.00;93656.75;2096388;28;20044;-80
2024/02/17 01:07:18;;;;;;;3.92;2.35;;;;;;;10.84;100.00;93663.56;2105941;28;20023;-80
2024/02/17 01:08:19;;;;;;;5.32;2.53;;;;;;;10.87;100.00;93670.00;2114785;28;20028;-80
2024/02/17 01:09:20;;;;;;;3.25;2.55;;;;;;;10.84;100.00;93663.56;2108733;28;20054;-79
2024/02/17 01:10:21;;;;;;;4.32;2.50;;;;;;;10.82;100.00;93660.50;2094322;28;20419;-79
2024/02/17 01:11:46;;;;;;;3.33;2.53;;;;;;;10.97;100.00;93679.03;2102394;28;20129;-79
2024/02/17 01:12:47;;;;;;;3.00;2.50;;;;;;;10.94;100.00;93672.59;2113456;27;20019;-80
2024/02/17 01:13:48;;;;;;;3.30;2.40;;;;;;;10.96;100.00;93666.81;2100828;28;20035;-80
2024/02/17 01:14:50;;;;;;;3.45;2.50;;;;;;;10.90;100.00;93669.22;2083371;28;20457;-79
2024/02/17 01:15:50;;;;;;;3.33;2.78;;;;;;;10.91;100.00;93680.66;2093308;28;20096;-79
2024/02/17 01:16:51;;;;;;;5.30;2.45;;;;;;;10.93;100.00;93676.44;2072728;28;20408;-79
2024/02/17 01:17:52;;;;;;;5.13;2.33;;;;;;;10.99;100.00;93682.06;2049615;28;23238;-79
2024/02/17 01:18:54;;;;;;;4.20;2.70;;;;;;;11.00;100.00;93679.00;2053154;28;20034;-80
2024/02/17 01:19:55;;;;;;;3.88;2.30;;;;;;;10.99;100.00;93680.16;2055879;28;20026;-79
2024/02/17 01:20:56;;;;;;;4.53;2.00;;;;;;;10.92;100.00;93674.91;2060640;28;23211;-80
2024/02/17 01:21:57;;;;;;;5.78;2.70;;;;;;;10.91;100.00;93678.75;2064105;28;20054;-79
2024/02/17 01:22:58;;;;;;;6.97;2.55;;;;;;;10.92;100.00;93676.81;2068007;28;20024;-79
2024/02/17 01:23:59;;;;;;;6.90;3.03;;;;;;;10.89;100.00;93682.97;2062498;28;20097;-79
2024/02/17 01:25:00;;;;;;;5.25;2.50;;;;;;;10.91;100.00;93684.09;2062633;28;20119;-80
2024/02/17 01:26:01;;;;;;;3.65;2.60;;;;;;;10.94;100.00;93679.84;2070088;28;20024;-79
2024/02/17 01:27:06;;;;;;;5.75;2.53;;;;;;;11.01;100.00;93677.81;2087430;28;20032;-80
2024/02/17 01:28:07;;;;;;;3.85;2.67;;;;;;;11.03;100.00;93682.78;2101146;28;20024;-79
2024/02/17 01:29:08;;;;;;;3.90;2.10;;;;;;;10.97;100.00;93679.03;2048923;28;20047;-79
2024/02/17 01:30:09;;;;;;;3.50;2.30;;;;;;;10.95;100.00;93686.72;2052686;28;20023;-79
2024/02/17 01:31:11;;;;;;;3.10;2.25;;;;;;;10.88;100.00;93682.22;2059053;28;20533;-80
2024/02/17 01:32:12;;;;;;;4.90;2.00;;;;;;;11.18;100.00;93688.69;2055861;28;20028;-79
2024/02/17 01:33:15;;;;;;;4.85;2.40;;;;;;;11.06;100.00;93690.75;2048646;28;20029;-79
2024/02/17 01:34:16;;;;;;;4.68;2.22;;;;;;;10.89;100.00;93681.06;2051196;28;20033;-79
2024/02/17 01:35:17;;;;;;;4.13;2.47;;;;;;;11.06;100.00;93681.94;2052785;28;20111;-81
2024/02/17 01:36:19;;;;;;;3.10;2.35;;;;;;;11.03;100.00;93685.47;2061206;28;20162;-80
2024/02/17 01:37:20;;;;;;;3.80;2.50;;;;;;;10.93;100.00;93681.78;2068150;28;22130;-79
2024/02/17 01:38:21;;;;;;;3.85;2.13;;;;;;;11.13;100.00;93684.53;2079258;28;20030;-80
2024/02/17 01:39:23;;;;;;;4.32;2.33;;;;;;;11.11;100.00;93692.22;2082617;28;20028;-80
2024/02/17 01:40:25;;;;;;;3.25;2.33;;;;;;;11.07;100.00;93683.50;2075288;28;20107;-79
2024/02/17 01:41:26;;;;;;;4.03;3.08;;;;;;;11.02;100.00;93684.69;2083318;28;20019;-80
2024/02/17 01:42:27;;;;;;;4.53;2.05;;;;;;;11.03;100.00;93688.88;2091629;28;20027;-79
2024/02/17 01:43:28;;;;;;;1.95;1.70;;;;;;;10.96;100.00;93688.97;2092656;28;20030;-80
2024/02/17 01:44:29;;;;;;;4.45;1.58;;;;;;;10.93;100.00;93689.81;2090817;28;20024;-80
2024/02/17 01:45:30;;;;;;;4.50;1.50;;;;;;;10.98;100.00;93697.38;2090278;28;20051;-80
2024/02/17 01:46:31;;;;;;;3.13;1.60;;;;;;;10.93;100.00;93694.38;2104123;28;20116;-80
2024/02/17 01:47:32;;;;;;;1.60;1.42;;;;;;;10.93;100.00;93689.81;2106068;28;20019;-80
2024/02/17 01:48:33;;;;;;;1.63;1.00;;;;;;;10.96;100.00;93702.34;2106455;28;20110;-80
2024/02/17 01:49:35;;;;;;;1.23;1.13;;;;;;;11.13;100.00;93692.56;2106337;28;20020;-80
2024/02/17 01:50:36;;;;;;;1.92;1.58;;;;;;;11.09;100.00;93703.31;2111943;28;20589;-80
2024/02/17 01:51:39;;;;;;;2.55;1.05;;;;;;;11.10;100.00;93694.13;2106319;28;20066;-80
2024/02/17 01:52:41;;;;;;;2.13;1.27;;;;;;;11.06;100.00;93698.00;2113506;28;20030;-79
2024/02/17 01:53:42;;;;;;;1.45;1.17;;;;;;;11.11;100.00;93692.22;2106734;28;20077;-81
2024/02/17 01:54:44;;;;;;;1.13;1.02;;;;;;;11.10;100.00;93688.00;2106468;28;20579;-80
2024/02/17 01:55:46;;;;;;;2.20;1.00;;;;;;;11.10;100.00;93688.00;2097816;28;20077;-80
2024/02/17 01:56:47;;;;;;;2.58;1.08;;;;;;;11.03;100.00;93688.13;2106238;28;20074;-80
2024/02/17 01:57:49;;;;;;;2.15;1.10;;;;;;;11.00;100.00;93694.28;2114680;28;20024;-79
2024/02/17 01:58:51;;;;;;;3.42;1.08;;;;;;;11.00;100.00;93694.28;2114205;28;20811;-80
2024/02/17 02:00:04;;;;;;;3.53;1.10;;;;;;;11.06;100.00;93687.31;2109517;28;20486;-80
2024/02/17 02:01:06;;;;;;;2.55;1.23;;;;;;;11.11;100.00;93700.25;2106331;28;20036;-79
2024/02/17 02:02:07;;;;;;;3.85;1.40;;;;;;;11.17;100.00;93698.63;2097685;28;20533;-80
2024/02/17 02:03:08;;;;;;;1.90;1.10;;;;;;;11.07;100.00;93702.97;2096557;28;20361;-79
2024/02/17 02:04:10;;;;;;;1.92;1.33;;;;;;;11.18;100.00;93696.69;2106168;28;20035;-80
2024/02/17 02:05:11;;;;;;;1.85;1.08;;;;;;;11.21;100.00;93704.69;2114470;28;20094;-79
2024/02/17 02:06:20;;;;;;;1.23;1.00;;;;;;;11.18;100.00;93702.06;2098193;28;20055;-80
2024/02/17 02:07:21;;;;;;;2.42;1.05;;;;;;;11.22;100.00;93706.19;2099986;28;20071;-80
2024/02/17 02:08:22;;;;;;;2.35;1.00;;;;;;;11.15;100.00;93700.19;2114467;28;20034;-80
2024/02/17 02:09:25;;;;;;;1.92;1.42;;;;;;;11.21;100.00;93706.59;2106158;28;20051;-80
2024/02/17 02:10:26;;;;;;;1.77;1.52;;;;;;;11.26;100.00;93706.16;2106306;28;20024;-80
2024/02/17 02:11:26;;;;;;;1.45;1.10;;;;;;;11.26;100.00;93709.56;2114434;28;20030;-80
2024/02/17 02:12:27;;;;;;;2.95;1.58;;;;;;;11.23;100.00;93709.63;2108633;28;20097;-80
2024/02/17 02:13:28;;;;;;;2.45;0.98;;;;;;;11.17;100.00;93703.97;2106171;28;20024;-80
2024/02/17 02:14:31;;;;;;;1.60;0.82;;;;;;;11.21;100.00;93706.59;2106032;28;20426;-80
2024/02/17 02:15:33;;;;;;;1.20;1.10;;;;;;;11.40;100.00;93705.91;2098005;28;20035;-79
2024/02/17 02:16:33;;;;;;;1.70;1.10;;;;;;;11.36;100.00;93710.56;2098111;28;20028;-79
2024/02/17 02:17:35;;;;;;;1.08;0.90;;;;;;;11.24;100.00;93706.56;2105770;28;20016;-79
2024/02/17 02:18:36;;;;;;;1.52;0.80;;;;;;;11.43;100.00;93705.13;2097655;28;20027;-80
2024/02/17 02:19:37;;;;;;;1.58;0.98;;;;;;;11.37;100.00;93703.28;2081298;28;20035;-79
2024/02/17 02:20:38;;;;;;;2.47;1.02;;;;;;;11.20;100.00;93710.44;2092236;28;20428;-79
2024/02/17 02:21:40;;;;;;;0.90;0.80;;;;;;;11.10;100.00;93710.16;2097745;28;20479;-80
2024/02/17 02:22:41;;;;;;;1.20;0.93;;;;;;;11.03;100.00;93709.53;2089859;28;20029;-80
2024/02/17 02:23:46;;;;;;;1.10;1.00;;;;;;;11.14;100.00;93712.81;2089511;28;20017;-80
2024/02/17 02:26:36;;;;;;;;;;;;;;;9.66;100.00;93716.75;2148793;27;20114;-78
2024/02/17 02:27:41;;;;;;;2.05;0.90;;;;;;;9.67;100.00;93726.28;2139257;27;20350;-81
2024/02/17 02:28:42;;;;;;;1.33;0.73;;;;;;;9.68;100.00;93715.19;2121924;27;20034;-81
2024/02/17 02:29:46;;;;;;;4.35;1.10;;;;;;;9.64;100.00;93716.38;2130275;27;20031;-81
2024/02/17 02:30:47;;;;;;;1.55;0.82;;;;;;;9.57;100.00;93717.97;2133885;27;20532;-82
2024/02/17 02:31:50;;;;;;;0.70;0.70;;;;;;;9.56;100.00;93721.78;2120511;27;20059;-81
2024/02/17 02:32:57;;;;;;;0.50;0.50;;;;;;;9.60;100.00;93708.41;2130442;27;21196;-81
2024/02/17 02:33:58;;;;;;;1.30;0.75;;;;;;;9.73;100.00;93722.03;2124083;27;20031;-82
2024/02/17 02:34:59;;;;;;;1.98;1.05;;;;;;;9.70;100.00;93714.78;2123724;27;20388;-80
2024/02/17 02:36:00;;;;;;;0.98;0.80;;;;;;;9.63;100.00;93718.31;2139370;27;20018;-81
2024/02/17 02:37:01;;;;;;;0.80;0.80;;;;;;;9.63;100.00;93717.53;2130088;27;20065;-81
2024/02/17 02:38:02;;;;;;;0.90;0.80;;;;;;;9.61;100.00;93719.84;2130139;27;20042;-80
2024/02/17 02:39:03;;;;;;;1.10;0.73;;;;;;;9.68;100.00;93717.88;2121747;28;20023;-81
2024/02/17 02:40:05;;;;;;;0.70;0.70;;;;;;;9.70;100.00;93715.59;2121661;27;20535;-81
2024/02/17 02:41:06;;;;;;;1.00;0.60;;;;;;;9.72;100.00;93720.53;2121769;27;20571;-81
2024/02/17 02:42:07;;;;;;;1.00;0.70;;;;;;;9.69;100.00;93715.97;2130223;27;20015;-81
2024/02/17 02:43:08;;;;;;;4.72;0.90;;;;;;;9.67;100.00;93720.94;2130259;27;20102;-82
2024/02/17 02:44:24;;;;;;;2.45;0.93;;;;;;;9.70;100.00;93720.91;2127024;27;20019;-81
2024/02/17 02:45:25;;;;;;;2.53;0.70;;;;;;;9.75;100.00;93722.41;2115348;28;20038;-80
2024/02/17 02:46:26;;;;;;;0.63;0.50;;;;;;;9.80;100.00;93720.06;2118114;27;20756;-81
2024/02/17 02:47:27;;;;;;;0.55;0.50;;;;;;;9.79;100.00;93729.22;2113068;28;20694;-81
2024/02/17 02:48:27;;;;;;;1.15;0.70;;;;;;;9.76;100.00;93723.91;2113191;28;20094;-80
2024/02/17 02:49:28;;;;;;;0.65;0.60;;;;;;;9.74;100.00;93731.53;2128632;27;20022;-81
2024/02/17 02:50:29;;;;;;;2.35;0.60;;;;;;;9.75;100.00;93727.75;2114949;28;20042;-81
2024/02/17 02:51:30;;;;;;;0.47;0.40;;;;;;;9.96;100.00;93724.09;2112995;28;20452;-80
2024/02/17 02:52:31;;;;;;;0.43;0.43;;;;;;;9.97;100.00;93730.97;2130061;27;20019;-81
2024/02/17 02:53:32;;;;;;;0.57;0.57;;;;;;;9.93;100.00;93724.91;2130075;27;20027;-81
2024/02/17 02:54:33;;;;;;;0.95;0.50;;;;;;;9.92;100.00;93731.38;2121624;27;20027;-80
2024/02/17 02:55:34;;;;;;;0.70;0.70;;;;;;;9.87;100.00;93729.91;2130067;27;20041;-81
2024/02/17 02:56:35;;;;;;;0.98;0.47;;;;;;;9.81;100.00;93731.50;2113399;28;20099;-81
2024/02/17 02:57:36;;;;;;;0.50;0.50;;;;;;;9.78;100.00;93729.59;2113330;28;20024;-81
2024/02/17 02:58:37;;;;;;;1.00;0.43;;;;;;;9.76;100.00;93729.25;2112628;27;20179;-80
2024/02/17 02:59:38;;;;;;;0.45;0.40;;;;;;;9.77;100.00;93725.44;2129915;27;20476;-81
2024/02/17 03:00:39;;;;;;;0.57;0.55;;;;;;;9.77;100.00;93733.44;2129982;27;20364;-80
2024/02/17 03:01:40;;;;;;;0.40;0.40;;;;;;;9.78;100.00;93725.03;2121666;27;20039;-81
2024/02/17 03:02:41;;;;;;;1.85;0.40;;;;;;;9.79;100.00;93731.91;2121586;27;20019;-80
2024/02/17 03:03:42;;;;;;;1.75;0.60;;;;;;;9.83;100.00;93727.28;2121367;27;20019;-81
2024/02/17 03:04:43;;;;;;;1.23;0.65;;;;;;;9.79;100.00;93733.81;2121703;27;20449;-81
2024/02/17 03:05:44;;;;;;;1.00;0.40;;;;;;;9.78;100.00;93730.34;2121192;28;20106;-81
2024/02/17 03:06:44;;;;;;;0.70;0.32;;;;;;;9.97;100.00;93731.72;2119460;28;20120;-80
2024/02/17 03:07:45;;;;;;;0.50;0.40;;;;;;;10.25;100.00;93732.63;2121754;27;20023;-81
2024/02/17 03:08:46;;;;;;;0.38;0.38;;;;;;;10.15;100.00;93734.22;2121419;27;20062;-80
2024/02/17 03:09:47;;;;;;;0.93;0.40;;;;;;;10.11;100.00;93736.19;2121566;27;20054;-80
2024/02/17 03:10:48;;;;;;;0.30;0.30;;;;;;;10.03;100.00;93735.47;2120935;27;20020;-80
2024/02/17 03:11:49;;;;;;;0.55;0.43;;;;;;;10.00;100.00;93733.59;2121371;28;20403;-80
2024/02/17 03:12:50;;;;;;;0.73;0.30;;;;;;;9.96;100.00;93738.22;2113019;28;20396;-80
2024/02/17 03:13:51;;;;;;;0.85;0.30;;;;;;;9.99;100.00;93739.34;2112996;28;20035;-80
2024/02/17 03:14:52;;;;;;;1.25;0.40;;;;;;;9.95;100.00;93734.03;2121450;28;20016;-81
2024/02/17 03:15:53;;;;;;;0.28;0.28;;;;;;;9.89;100.00;93732.94;2121235;28;20035;-81
2024/02/17 03:16:54;;;;;;;0.40;0.40;;;;;;;9.86;100.00;93739.06;2121231;28;20035;-80
2024/02/17 03:17:55;;;;;;;0.30;0.30;;;;;;;9.84;100.00;93741.38;2130457;27;20419;-80
2024/02/17 03:18:56;;;;;;;0.30;0.30;;;;;;;9.72;100.00;93739.97;2121511;28;20023;-80
2024/02/17 03:19:56;;;;;;;0.30;0.30;;;;;;;9.99;100.00;93739.34;2112939;28;20586;-80
2024/02/17 03:20:57;;;;;;;0.30;0.30;;;;;;;9.95;100.00;93734.03;2104495;28;20488;-80
2024/02/17 03:21:59;;;;;;;0.30;0.30;;;;;;;9.93;100.00;93736.34;2114430;28;20020;-81
2024/02/17 03:22:59;;;;;;;2.08;0.40;;;;;;;9.87;100.00;93729.16;2129923;27;20026;-80
2024/02/17 03:24:00;;;;;;;2.33;0.40;;;;;;;9.85;100.00;93745.56;2139084;27;20037;-80
2024/02/17 03:25:02;;;;;;;0.30;0.30;;;;;;;9.72;100.00;93745.28;2129999;27;20031;-81
2024/02/17 03:26:03;;;;;;;0.30;0.30;;;;;;;9.73;100.00;93743.38;2121084;28;20047;-80
2024/02/17 03:27:04;;;;;;;0.30;0.30;;;;;;;9.78;100.00;93745.63;2112859;28;20084;-80
2024/02/17 03:28:05;;;;;;;1.17;0.40;;;;;;;9.78;100.00;93748.28;2112716;28;20024;-81
2024/02/17 03:29:06;;;;;;;0.30;0.30;;;;;;;9.79;100.00;93747.16;2112541;28;20027;-81
2024/02/17 03:30:07;;;;;;;0.30;0.30;;;;;;;9.74;100.00;93739.56;2104288;28;20561;-81
2024/02/17 03:31:09;;;;;;;1.30;0.30;;;;;;;9.69;100.00;93745.31;2103594;28;20157;-80
2024/02/17 03:32:10;;;;;;;0.98;0.40;;;;;;;9.58;100.00;93758.75;2121100;27;20016;-81
2024/02/17 03:33:10;;;;;;;0.77;0.30;;;;;;;9.48;100.00;93751.56;2121420;27;20084;-81
2024/02/17 03:34:11;;;;;;;0.20;0.20;;;;;;;9.58;100.00;93746.16;2129656;27;20402;-80
2024/02/17 03:35:12;;;;;;;2.40;0.30;;;;;;;9.65;100.00;93747.25;2121081;28;20058;-80
2024/02/17 03:36:13;;;;;;;0.30;0.30;;;;;;;9.66;100.00;93757.56;2121743;27;20333;-81
2024/02/17 03:37:14;;;;;;;0.20;0.20;;;;;;;9.69;100.00;93739.97;2137947;27;20487;-81
2024/02/17 03:38:15;;;;;;;0.20;0.20;;;;;;;9.64;100.00;93753.75;2115209;28;20028;-80
2024/02/17 03:39:19;;;;;;;0.30;0.30;;;;;;;9.63;100.00;93747.66;2115633;28;20081;-81
2024/02/17 03:40:21;;;;;;;0.30;0.30;;;;;;;9.64;100.00;93751.09;2115620;27;20051;-82
2024/02/17 03:41:23;;;;;;;0.73;0.20;;;;;;;9.69;100.00;93748.75;2107523;28;20162;-82
2024/02/17 03:42:24;;;;;;;1.55;0.30;;;;;;;9.67;100.00;93758.31;2115639;28;20031;-80
2024/02/17 03:43:25;;;;;;;0.20;0.20;;;;;;;9.68;100.00;93752.56;2115650;27;20024;-82
2024/02/17 03:44:26;;;;;;;0.30;0.30;;;;;;;9.61;100.00;93749.19;2124111;27;20023;-80
2024/02/17 03:45:27;;;;;;;0.28;0.28;;;;;;;9.65;100.00;93755.25;2124071;27;20050;-80
2024/02/17 03:46:29;;;;;;;0.38;0.20;;;;;;;9.63;100.00;93760.25;2113581;28;20079;-81
2024/02/17 03:47:30;;;;;;;0.20;0.20;;;;;;;9.67;100.00;93763.66;2106628;28;20387;-81
2024/02/17 03:48:30;;;;;;;2.15;0.30;;;;;;;9.65;100.00;93760.59;2106240;28;20039;-81
2024/02/17 03:49:32;;;;;;;0.30;0.30;;;;;;;9.66;100.00;93765.56;2104015;28;20027;-81
2024/02/17 03:50:33;;;;;;;0.93;0.28;;;;;;;9.64;100.00;93759.84;2110253;27;20125;-80
2024/02/17 03:51:33;;;;;;;1.73;0.35;;;;;;;9.65;100.00;93765.94;2112551;28;20057;-81
2024/02/17 03:52:34;;;;;;;1.17;0.30;;;;;;;9.61;100.00;93770.53;2100191;28;20111;-81
2024/02/17 03:53:36;;;;;;;1.27;0.30;;;;;;;9.76;100.00;93774.63;2112051;28;20475;-82
2024/02/17 03:54:37;;;;;;;0.43;0.20;;;;;;;9.88;100.00;93773.38;2118900;27;20031;-81
2024/02/17 03:55:38;;;;;;;0.20;0.20;;;;;;;9.73;100.00;93767.41;2114667;28;20031;-81
2024/02/17 03:56:39;;;;;;;0.30;0.30;;;;;;;9.68;100.00;93771.25;2122592;27;20030;-82
2024/02/17 03:57:40;;;;;;;0.30;0.30;;;;;;;9.81;100.00;93779.56;2133050;27;20026;-82
2024/02/17 03:58:41;;;;;;;0.20;0.20;;;;;;;9.87;100.00;93774.53;2123390;27;20207;-81
2024/02/17 03:59:42;;;;;;;1.58;0.65;;;;;;;9.85;100.00;93774.94;2115461;28;20107;-82
2024/02/17 04:00:43;;;;;;;0.30;0.30;;;;;;;9.83;100.00;93780.69;2115075;28;20802;-81
2024/02/17 04:01:43;;;;;;;1.63;0.52;;;;;;;9.75;100.00;93776.56;2115204;28;20471;-81
2024/02/17 04:02:44;;;;;;;1.48;0.20;;;;;;;9.74;100.00;93775.00;2115292;28;20050;-82
2024/02/17 04:03:45;;;;;;;1.08;0.30;;;;;;;9.67;100.00;93782.34;2106880;28;20051;-82
2024/02/17 04:04:46;;;;;;;0.30;0.30;;;;;;;9.79;100.00;93787.22;2106943;28;20016;-81
2024/02/17 04:05:47;;;;;;;0.30;0.30;;;;;;;9.67;100.00;93785.00;2115241;28;20063;-82
2024/02/17 04:06:48;;;;;;;0.30;0.30;;;;;;;9.67;100.00;93785.00;2129392;27;20018;-82
2024/02/17 04:07:49;;;;;;;0.57;0.28;;;;;;;9.62;100.00;93790.78;2124990;27;20023;-82
2024/02/17 04:08:50;;;;;;;1.35;0.30;;;;;;;9.77;100.00;93789.50;2115323;28;20052;-81
2024/02/17 04:10:10;;;;;;;0.20;0.20;;;;;;;9.75;100.00;93789.16;2098596;28;20032;-80
2024/02/17 04:11:11;;;;;;;0.55;0.20;;;;;;;9.74;100.00;93795.63;2108097;27;20154;-82
2024/02/17 04:12:12;;;;;;;0.20;0.20;;;;;;;9.77;100.00;93790.25;2123734;27;20394;-82
2024/02/17 04:13:13;;;;;;;2.08;0.30;;;;;;;9.79;100.00;93793.31;2123668;27;20023;-82
2024/02/17 04:14:14;;;;;;;1.80;0.30;;;;;;;9.70;100.00;93789.53;2123701;27;20027;-82
2024/02/17 04:15:15;;;;;;;1.20;1.20;;;;;;;9.64;100.00;93796.47;2123640;27;20015;-79
2024/02/17 04:16:16;;;;;;;0.20;0.20;;;;;;;9.59;100.00;93795.72;2123685;27;20551;-81
2024/02/17 04:17:19;;;;;;;0.30;0.30;;;;;;;9.66;100.00;93799.47;2132824;27;20030;-80
2024/02/17 04:18:20;;;;;;;1.35;0.30;;;;;;;9.65;100.00;93804.06;2123866;27;20078;-82
2024/02/17 04:19:20;;;;;;;0.32;0.20;;;;;;;9.53;100.00;93797.31;2123981;27;20023;-81
2024/02/17 04:20:21;;;;;;;0.25;0.20;;;;;;;9.66;100.00;93805.59;2115235;28;20024;-83
2024/02/17 04:21:22;;;;;;;0.28;0.28;;;;;;;9.69;100.00;93809.38;2115525;28;20023;-81
2024/02/17 04:22:25;;;;;;;1.55;0.30;;;;;;;9.67;100.00;93807.13;2107619;28;20020;-81
2024/02/17 04:23:26;;;;;;;0.20;0.20;;;;;;;9.59;100.00;93805.66;2125116;27;20503;-80
2024/02/17 04:24:27;;;;;;;0.20;0.20;;;;;;;9.58;100.00;93815.56;2133482;27;20119;-79
2024/02/17 04:25:27;;;;;;;0.30;0.30;;;;;;;9.57;100.00;93805.28;2115432;28;20062;-83
2024/02/17 04:26:29;;;;;;;2.10;0.30;;;;;;;9.58;100.00;93802.22;2115382;27;20039;-81
2024/02/17 04:27:30;;;;;;;0.40;0.40;;;;;;;9.56;100.00;93809.09;2115423;28;20027;-80
2024/02/17 04:28:31;;;;;;;2.50;0.30;;;;;;;9.64;100.00;93810.56;2103220;28;20048;-82
2024/02/17 04:29:31;;;;;;;0.30;0.30;;;;;;;9.69;100.00;93815.47;2113048;27;20027;-80
2024/02/17 04:30:33;;;;;;;0.20;0.20;;;;;;;9.64;100.00;93815.91;2115131;28;20027;-82
2024/02/17 04:31:34;;;;;;;0.55;0.22;;;;;;;9.62;100.00;93817.47;2106600;28;20024;-82
2024/02/17 04:32:35;;;;;;;2.08;0.30;;;;;;;9.72;100.00;93819.28;2115380;28;20015;-82
2024/02/17 04:33:37;;;;;;;1.08;0.20;;;;;;;9.67;100.00;93822.38;2106865;28;20116;-80
2024/02/17 04:34:38;;;;;;;0.20;0.20;;;;;;;9.68;100.00;93824.66;2106785;27;20115;-80
2024/02/17 04:35:39;;;;;;;0.65;0.30;;;;;;;9.65;100.00;93825.41;2115360;28;20020;-81
2024/02/17 04:36:40;;;;;;;0.40;0.40;;;;;;;9.68;100.00;93826.56;2106973;28;20057;-80
2024/02/17 04:37:41;;;;;;;0.68;0.60;;;;;;;9.62;100.00;93828.91;2115324;28;20528;-80
2024/02/17 04:38:42;;;;;;;2.42;0.40;;;;;;;9.70;100.00;93832.25;2115312;28;20492;-83
2024/02/17 04:39:43;;;;;;;0.43;0.40;;;;;;;9.69;100.00;93825.41;2121200;27;20019;-80
2024/02/17 04:40:44;;;;;;;0.20;0.20;;;;;;;9.57;100.00;93842.66;2115277;28;20057;-81
2024/02/17 04:41:45;;;;;;;0.30;0.30;;;;;;;9.51;100.00;93838.88;2107181;28;20067;-82
2024/02/17 04:42:46;;;;;;;0.40;0.40;;;;;;;9.70;100.00;93832.25;2123932;27;20019;-82
2024/02/17 04:43:47;;;;;;;0.40;0.40;;;;;;;9.72;100.00;93833.38;2115371;28;20045;-79
2024/02/17 04:44:48;;;;;;;1.00;0.30;;;;;;;9.84;100.00;93840.19;2106913;27;20056;-80
2024/02/17 04:45:49;;;;;;;0.40;0.40;;;;;;;9.76;100.00;93836.78;2115464;28;20023;-82
2024/02/17 04:46:50;;;;;;;0.73;0.30;;;;;;;9.68;100.00;93839.91;2123941;27;20060;-80
2024/02/17 04:47:51;;;;;;;0.93;0.70;;;;;;;9.75;100.00;93847.88;2115464;28;20019;-80
2024/02/17 04:48:52;;;;;;;0.65;0.65;;;;;;;9.56;100.00;93847.22;2106827;28;20141;-81
2024/02/17 04:49:53;;;;;;;1.60;0.80;;;;;;;9.63;100.00;93843.75;2106349;28;20040;-81